createdAt,value
2024-01-24T00:00:49.148Z,3.67
2024-01-24T00:03:51.884Z,3.65
2024-01-24T00:06:54.108Z,3.63
2024-01-24T00:09:56.566Z,3.58
2024-01-24T00:12:58.690Z,3.62
2024-01-24T00:16:01.100Z,3.60
2024-01-24T00:19:04.028Z,3.68
2024-01-24T00:22:06.746Z,3.70
2024-01-24T00:25:09.240Z,3.76
2024-01-24T00:28:13.120Z,3.82
2024-01-24T00:31:15.227Z,3.81
2024-01-24T00:34:17.793Z,3.69
2024-01-24T00:37:19.942Z,3.64
2024-01-24T00:40:23.227Z,3.69
2024-01-24T00:43:27.061Z,3.57
2024-01-24T00:46:29.492Z,3.47
2024-01-24T00:49:31.845Z,3.44
2024-01-24T00:52:34.492Z,3.40
2024-01-24T00:55:36.572Z,3.39
2024-01-24T00:58:38.906Z,3.37
2024-01-24T01:01:41.004Z,3.36
2024-01-24T01:04:44.604Z,3.33
2024-01-24T01:07:46.814Z,3.31
2024-01-24T01:10:49.272Z,3.30
2024-01-24T01:13:51.409Z,3.28
2024-01-24T01:16:54.754Z,3.25
2024-01-24T01:19:57.276Z,3.26
2024-01-24T01:22:59.628Z,3.28
2024-01-24T01:26:01.808Z,3.27
2024-01-24T01:29:04.803Z,3.33
2024-01-24T01:32:07.252Z,3.32
2024-01-24T01:35:10.651Z,3.36
2024-01-24T01:38:14.506Z,3.32
2024-01-24T01:41:16.989Z,3.22
2024-01-24T01:44:19.097Z,3.19
2024-01-24T01:47:22.608Z,3.11
2024-01-24T01:50:24.945Z,3.03
2024-01-24T01:53:27.814Z,2.94
2024-01-24T01:56:30.190Z,2.91
2024-01-24T01:59:33.049Z,2.85
2024-01-24T02:02:35.577Z,2.80
2024-01-24T02:05:39.273Z,2.72
2024-01-24T02:08:44.187Z,2.65
2024-01-24T02:11:46.321Z,2.65
2024-01-24T02:14:49.007Z,2.62
2024-01-24T02:17:51.242Z,2.60
2024-01-24T02:20:53.708Z,2.58
2024-01-24T02:23:57.766Z,2.65
2024-01-24T02:27:00.142Z,2.66
2024-01-24T02:30:02.309Z,2.67
2024-01-24T02:33:04.931Z,2.64
2024-01-24T02:36:07.269Z,2.59
2024-01-24T02:39:09.748Z,2.52
2024-01-24T02:42:11.931Z,2.47
2024-01-24T02:45:14.658Z,2.44
2024-01-24T02:48:16.966Z,2.47
2024-01-24T02:51:26.938Z,2.49
2024-01-24T02:54:29.346Z,2.50
2024-01-24T02:57:31.800Z,2.49
2024-01-24T03:00:34.038Z,2.55
2024-01-24T03:03:39.051Z,2.58
2024-01-24T03:06:41.697Z,2.61
2024-01-24T03:09:44.216Z,2.64
2024-01-24T03:12:46.345Z,2.68
2024-01-24T03:15:48.765Z,2.72
2024-01-24T03:18:52.824Z,2.73
2024-01-24T03:21:55.497Z,2.73
2024-01-24T03:24:57.704Z,2.72
2024-01-24T03:28:00.206Z,2.74
2024-01-24T03:31:03.466Z,2.69
2024-01-24T03:34:06.425Z,2.77
2024-01-24T03:37:08.700Z,2.74
2024-01-24T03:40:11.316Z,2.50
2024-01-24T03:43:13.697Z,2.54
2024-01-24T03:46:19.095Z,2.45
2024-01-24T03:49:22.909Z,2.37
2024-01-24T03:52:25.436Z,2.30
2024-01-24T03:55:27.562Z,2.21
2024-01-24T03:58:30.001Z,2.22
2024-01-24T04:01:32.416Z,2.23
2024-01-24T04:04:35.057Z,2.23
2024-01-24T04:07:37.292Z,2.25
2024-01-24T04:10:39.726Z,2.21
2024-01-24T04:13:44.170Z,2.33
2024-01-24T04:16:46.690Z,2.42
2024-01-24T04:19:48.957Z,2.45
2024-01-24T04:22:51.867Z,2.36
2024-01-24T04:25:54.054Z,2.44
2024-01-24T04:28:56.412Z,2.43
2024-01-24T04:31:59.130Z,2.42
2024-01-24T04:35:01.581Z,2.46
2024-01-24T04:38:05.024Z,2.46
2024-01-24T04:41:09.720Z,2.48
2024-01-24T04:44:11.814Z,2.48
2024-01-24T04:47:16.771Z,2.54
2024-01-24T04:50:19.893Z,2.61
2024-01-24T04:53:22.414Z,2.60
2024-01-24T04:56:24.526Z,2.69
2024-01-24T04:59:26.860Z,2.76
2024-01-24T05:02:28.911Z,2.85
2024-01-24T05:05:31.442Z,2.92
2024-01-24T05:08:33.585Z,2.98
2024-01-24T05:11:35.946Z,3.05
2024-01-24T05:14:38.088Z,3.04
2024-01-24T05:17:40.785Z,3.05
2024-01-24T05:20:43.182Z,3.04
2024-01-24T05:23:46.983Z,3.03
2024-01-24T05:26:49.783Z,3.06
2024-01-24T05:29:52.177Z,3.07
2024-01-24T05:32:56.875Z,3.06
2024-01-24T05:35:59.291Z,3.06
2024-01-24T05:39:01.407Z,3.05
2024-01-24T05:42:03.915Z,3.04
2024-01-24T05:45:06.730Z,3.04
2024-01-24T05:48:09.421Z,3.04
2024-01-24T05:51:11.947Z,3.09
2024-01-24T05:54:14.449Z,3.14
2024-01-24T05:57:16.703Z,3.18
2024-01-24T06:00:20.417Z,3.22
2024-01-24T06:03:22.930Z,3.27
2024-01-24T06:06:25.184Z,3.33
2024-01-24T06:09:28.782Z,3.35
2024-01-24T06:12:30.911Z,3.35
2024-01-24T06:15:33.396Z,3.35
2024-01-24T06:18:35.671Z,3.19
2024-01-24T06:21:38.613Z,3.19
2024-01-24T06:24:41.124Z,3.15
2024-01-24T06:27:43.636Z,3.13
2024-01-24T06:30:47.269Z,3.11
2024-01-24T06:33:49.952Z,3.02
2024-01-24T06:36:52.139Z,3.07
2024-01-24T06:39:54.569Z,3.06
2024-01-24T06:42:56.929Z,3.09
2024-01-24T06:45:59.469Z,3.05
2024-01-24T06:49:01.978Z,2.97
2024-01-24T06:52:04.540Z,2.97
2024-01-24T06:55:07.026Z,2.97
2024-01-24T06:58:10.400Z,2.92
2024-01-24T07:01:13.102Z,2.94
2024-01-24T07:04:15.760Z,2.95
2024-01-24T07:07:18.047Z,2.93
2024-01-24T07:10:20.528Z,2.96
2024-01-24T07:13:22.704Z,2.93
2024-01-24T07:16:25.086Z,2.93
2024-01-24T07:19:27.434Z,2.92
2024-01-24T07:22:29.880Z,2.91
2024-01-24T07:25:32.260Z,2.90
2024-01-24T07:28:36.240Z,2.96
2024-01-24T07:31:39.284Z,2.98
2024-01-24T07:34:42.892Z,2.98
2024-01-24T07:37:45.597Z,3.01
2024-01-24T07:40:48.123Z,2.97
2024-01-24T07:43:50.432Z,2.99
2024-01-24T07:46:53.147Z,3.06
2024-01-24T07:49:55.608Z,3.08
2024-01-24T07:52:58.415Z,3.11
2024-01-24T07:56:07.317Z,3.15
2024-01-24T07:59:18.574Z,3.16
2024-01-24T08:02:21.141Z,3.20
2024-01-24T08:05:24.928Z,3.25
2024-01-24T08:08:27.430Z,3.34
2024-01-24T08:11:30.031Z,3.39
2024-01-24T08:14:32.231Z,3.40
2024-01-24T08:17:35.852Z,3.41
2024-01-24T08:20:38.678Z,3.42
2024-01-24T08:23:47.093Z,3.43
2024-01-24T08:26:56.581Z,3.43
2024-01-24T08:30:02.004Z,3.41
2024-01-24T08:33:04.448Z,3.41
2024-01-24T08:36:06.909Z,3.41
2024-01-24T08:39:09.337Z,3.42
2024-01-24T08:42:12.254Z,3.44
2024-01-24T08:45:14.470Z,3.48
2024-01-24T08:48:18.928Z,3.48
2024-01-24T08:51:23.385Z,3.53
2024-01-24T08:54:25.843Z,3.60
2024-01-24T08:57:29.140Z,3.69
2024-01-24T09:00:31.768Z,3.76
2024-01-24T09:03:34.079Z,3.80
2024-01-24T09:06:36.530Z,3.87
2024-01-24T09:09:40.967Z,3.89
2024-01-24T09:12:45.705Z,3.96
2024-01-24T09:15:48.876Z,4.01
2024-01-24T09:18:52.698Z,4.04
2024-01-24T09:21:55.349Z,4.05
2024-01-24T09:24:57.926Z,4.01
2024-01-24T09:28:00.257Z,3.97
2024-01-24T09:31:02.968Z,4.01
2024-01-24T09:34:05.545Z,3.96
2024-01-24T09:37:08.147Z,3.92
2024-01-24T09:40:11.135Z,3.93
2024-01-24T09:43:15.038Z,3.91
2024-01-24T09:46:20.762Z,3.82
2024-01-24T09:49:23.374Z,3.84
2024-01-24T09:52:28.054Z,3.72
2024-01-24T09:55:33.152Z,3.64
2024-01-24T09:58:35.367Z,3.64
2024-01-24T10:01:40.898Z,3.61
2024-01-24T10:04:44.958Z,3.70
2024-01-24T10:07:47.860Z,3.64
2024-01-24T10:10:50.456Z,3.65
2024-01-24T10:13:56.832Z,3.66
2024-01-24T10:16:59.372Z,3.77
2024-01-24T10:20:02.135Z,3.77
2024-01-24T10:23:05.373Z,3.73
2024-01-24T10:26:09.118Z,3.85
2024-01-24T10:29:15.108Z,3.92
2024-01-24T10:32:17.311Z,3.90
2024-01-24T10:35:19.983Z,3.98
2024-01-24T10:38:25.573Z,4.03
2024-01-24T10:41:35.121Z,4.06
2024-01-24T10:44:38.768Z,4.10
2024-01-24T10:47:42.355Z,4.15
2024-01-24T10:50:45.067Z,4.23
2024-01-24T10:53:48.528Z,4.29
2024-01-24T10:56:51.825Z,4.35
2024-01-24T10:59:55.473Z,4.38
2024-01-24T11:02:58.930Z,4.39
2024-01-24T11:06:06.629Z,4.46
2024-01-24T11:09:12.547Z,4.51
2024-01-24T11:12:15.013Z,4.56
2024-01-24T11:15:17.319Z,4.62
2024-01-24T11:18:24.008Z,4.67
2024-01-24T11:21:29.139Z,4.64
2024-01-24T11:24:53.637Z,4.69
2024-01-24T11:27:58.912Z,4.76
2024-01-24T11:31:01.832Z,4.80
2024-01-24T11:34:08.121Z,4.83
2024-01-24T11:37:16.500Z,4.87
2024-01-24T11:40:18.975Z,4.92
2024-01-24T11:43:28.901Z,4.96
2024-01-24T11:46:33.050Z,4.97
2024-01-24T11:49:35.606Z,5.03
2024-01-24T11:52:37.970Z,5.03
2024-01-24T11:55:40.410Z,5.06
2024-01-24T11:58:42.731Z,5.05
2024-01-24T12:01:45.464Z,5.07
2024-01-24T12:04:54.556Z,5.07
2024-01-24T12:07:56.845Z,5.07
2024-01-24T12:11:00.081Z,5.11
2024-01-24T12:14:03.180Z,5.14
2024-01-24T12:17:06.364Z,5.20
2024-01-24T12:20:10.652Z,5.22
2024-01-24T12:23:14.439Z,5.25
2024-01-24T12:26:16.780Z,5.27
2024-01-24T12:29:19.907Z,5.30
2024-01-24T12:32:22.626Z,5.37
2024-01-24T12:35:25.978Z,5.43
2024-01-24T12:38:28.082Z,5.32
2024-01-24T12:41:31.881Z,5.40
2024-01-24T12:44:35.852Z,5.30
2024-01-24T12:47:39.109Z,5.36
2024-01-24T12:50:41.481Z,5.44
2024-01-24T12:53:44.313Z,5.50
2024-01-24T12:56:48.522Z,5.54
2024-01-24T12:59:51.511Z,5.53
2024-01-24T13:02:54.274Z,5.47
2024-01-24T13:05:57.039Z,5.48
2024-01-24T13:08:59.697Z,5.45
2024-01-24T13:12:02.382Z,5.48
2024-01-24T13:15:05.988Z,5.51
2024-01-24T13:18:09.389Z,5.52
2024-01-24T13:21:11.906Z,5.50
2024-01-24T13:24:14.412Z,5.43
2024-01-24T13:27:16.666Z,5.32
2024-01-24T13:30:19.224Z,5.32
2024-01-24T13:33:21.561Z,5.27
2024-01-24T13:36:24.500Z,5.30
2024-01-24T13:39:26.806Z,5.02
2024-01-24T13:42:29.390Z,4.91
2024-01-24T13:45:32.044Z,4.91
2024-01-24T13:48:34.700Z,4.79
2024-01-24T13:51:42.644Z,4.76
2024-01-24T13:54:46.808Z,4.83
2024-01-24T13:57:49.712Z,4.86
2024-01-24T14:00:52.745Z,4.92
2024-01-24T14:03:55.609Z,4.98
2024-01-24T14:06:58.032Z,5.02
2024-01-24T14:10:00.588Z,5.07
2024-01-24T14:13:03.411Z,5.13
2024-01-24T14:16:06.942Z,5.13
2024-01-24T14:19:09.360Z,5.21
2024-01-24T14:22:11.896Z,5.28
2024-01-24T14:25:14.166Z,5.29
2024-01-24T14:28:16.875Z,5.25
2024-01-24T14:31:19.090Z,5.17
2024-01-24T14:34:21.620Z,5.25
2024-01-24T14:37:28.983Z,5.20
2024-01-24T14:40:33.493Z,5.16
2024-01-24T14:43:35.678Z,5.09
2024-01-24T14:46:38.092Z,5.17
2024-01-24T14:49:40.282Z,5.05
2024-01-24T14:52:42.794Z,5.16
2024-01-24T14:55:45.136Z,5.16
2024-01-24T14:58:47.505Z,5.03
2024-01-24T15:01:49.933Z,4.93
2024-01-24T15:04:52.567Z,4.96
2024-01-24T15:07:54.871Z,4.96
2024-01-24T15:10:57.407Z,4.90
2024-01-24T15:13:59.700Z,5.01
2024-01-24T15:17:02.238Z,5.03
2024-01-24T15:20:05.268Z,5.03
2024-01-24T15:23:09.027Z,5.06
2024-01-24T15:26:11.373Z,5.12
2024-01-24T15:35:49.196Z,5.16
2024-01-24T15:38:55.868Z,5.18
2024-01-24T15:42:01.438Z,5.20
2024-01-24T15:45:04.407Z,5.20
2024-01-24T15:48:06.931Z,5.25
2024-01-24T15:51:09.562Z,5.28
2024-01-24T15:54:12.045Z,5.30
2024-01-24T15:57:14.497Z,5.31
2024-01-24T16:00:16.896Z,5.32
2024-01-24T16:03:20.851Z,5.35
2024-01-24T16:06:23.476Z,5.37
2024-01-24T16:09:26.412Z,5.35
2024-01-24T16:12:28.667Z,5.35
2024-01-24T16:15:31.177Z,5.35
2024-01-24T16:18:34.330Z,5.37
2024-01-24T16:21:43.114Z,5.37
2024-01-24T16:24:45.831Z,5.34
2024-01-24T16:27:48.297Z,5.36
2024-01-24T16:30:50.577Z,5.37
2024-01-24T16:33:53.093Z,5.38
2024-01-24T16:36:55.307Z,5.47
2024-01-24T16:39:57.836Z,5.49
2024-01-24T16:43:00.053Z,5.46
2024-01-24T16:46:03.686Z,5.51
2024-01-24T16:49:06.005Z,5.53
2024-01-24T16:52:08.589Z,5.64
2024-01-24T16:55:12.300Z,5.59
2024-01-24T16:58:15.704Z,5.56
2024-01-24T17:01:17.924Z,5.56
2024-01-24T17:04:20.490Z,5.59
2024-01-24T17:07:23.220Z,5.64
2024-01-24T17:10:25.667Z,5.75
2024-01-24T17:13:27.723Z,5.82
2024-01-24T17:16:30.310Z,5.92
2024-01-24T17:19:32.581Z,6.02
2024-01-24T17:22:35.193Z,6.08
2024-01-24T17:25:37.270Z,6.10
2024-01-24T17:28:39.710Z,6.19
2024-01-24T17:31:41.819Z,6.24
2024-01-24T17:34:44.495Z,6.32
2024-01-24T17:37:47.339Z,6.31
2024-01-24T17:40:50.118Z,6.28
2024-01-24T17:43:52.506Z,6.30
2024-01-24T17:46:55.083Z,6.28
2024-01-24T17:49:57.316Z,6.23
2024-01-24T17:52:59.940Z,6.18
2024-01-24T17:56:02.036Z,6.11
2024-01-24T17:59:04.683Z,6.01
2024-01-24T18:02:07.276Z,5.96
2024-01-24T18:05:09.970Z,5.87
2024-01-24T18:08:13.040Z,5.81
2024-01-24T18:11:15.854Z,5.74
2024-01-24T18:14:17.978Z,5.63
2024-01-24T18:17:20.497Z,5.58
2024-01-24T18:20:22.701Z,5.59
2024-01-24T18:23:25.152Z,5.59
2024-01-24T18:26:27.296Z,5.54
2024-01-24T18:29:29.694Z,5.48
2024-01-24T18:32:33.244Z,5.50
2024-01-24T18:35:35.784Z,5.49
2024-01-24T18:38:41.011Z,5.47
2024-01-24T18:41:43.534Z,5.44
2024-01-24T18:44:45.845Z,5.47
2024-01-24T18:47:48.595Z,5.52
2024-01-24T18:50:51.162Z,5.56
2024-01-24T18:53:53.584Z,5.66
2024-01-24T18:56:56.019Z,5.84
2024-01-24T18:59:58.760Z,6.03
2024-01-24T19:03:01.105Z,6.05
2024-01-24T19:06:06.619Z,5.97
2024-01-24T19:09:09.388Z,5.91
2024-01-24T19:12:12.016Z,5.87
2024-01-24T19:15:14.138Z,5.85
2024-01-24T19:18:20.468Z,5.83
2024-01-24T19:21:25.144Z,5.77
2024-01-24T19:24:27.677Z,5.75
2024-01-24T19:27:30.042Z,5.68
2024-01-24T19:30:32.579Z,5.66
2024-01-24T19:33:34.929Z,5.63
2024-01-24T19:36:37.980Z,5.62
2024-01-24T19:39:40.139Z,5.57
2024-01-24T19:42:42.669Z,5.54
2024-01-24T19:45:44.919Z,5.52
2024-01-24T19:48:47.428Z,5.51
2024-01-24T19:51:51.903Z,5.50
2024-01-24T19:54:55.608Z,5.51
2024-01-24T19:57:59.088Z,5.49
2024-01-24T20:01:05.433Z,5.52
2024-01-24T20:04:08.041Z,5.52
2024-01-24T20:07:10.349Z,5.46
2024-01-24T20:10:13.292Z,5.43
2024-01-24T20:13:15.904Z,5.40
2024-01-24T20:16:19.023Z,5.38
2024-01-24T20:19:21.207Z,5.37
2024-01-24T20:22:23.588Z,5.43
2024-01-24T20:25:25.840Z,5.42
2024-01-24T20:28:28.256Z,5.43
2024-01-24T20:31:30.429Z,5.47
2024-01-24T20:34:33.276Z,5.44
2024-01-24T20:37:35.492Z,5.44
2024-01-24T20:40:37.899Z,5.44
2024-01-24T20:43:40.692Z,5.48
2024-01-24T20:46:43.345Z,5.49
2024-01-24T20:49:46.051Z,5.48
2024-01-24T20:52:50.730Z,5.52
2024-01-24T20:55:53.445Z,5.49
2024-01-24T20:58:55.857Z,5.50
2024-01-24T21:02:00.328Z,5.49
2024-01-24T21:05:03.831Z,5.47
2024-01-24T21:08:06.884Z,5.45
2024-01-24T21:11:11.697Z,5.47
2024-01-24T21:14:13.815Z,5.51
2024-01-24T21:17:16.389Z,5.52
2024-01-24T21:20:18.818Z,5.54
2024-01-24T21:23:21.390Z,5.59
2024-01-24T21:26:23.469Z,5.61
2024-01-24T21:29:25.897Z,5.59
2024-01-24T21:32:28.203Z,5.55
2024-01-24T21:35:30.713Z,5.54
2024-01-24T21:38:32.994Z,5.49
2024-01-24T21:41:35.840Z,5.49
2024-01-24T21:44:38.008Z,5.50
2024-01-24T21:47:42.119Z,5.58
2024-01-24T21:50:44.960Z,5.64
2024-01-24T21:53:47.921Z,5.73
2024-01-24T21:56:50.770Z,5.84
2024-01-24T21:59:53.302Z,5.99
2024-01-24T22:02:55.427Z,6.09
2024-01-24T22:05:58.069Z,6.17
2024-01-24T22:09:00.486Z,6.24
2024-01-24T22:12:02.922Z,6.34
2024-01-24T22:15:06.108Z,6.44
2024-01-24T22:18:09.378Z,6.50
2024-01-24T22:21:12.764Z,6.56
2024-01-24T22:24:15.224Z,6.63
2024-01-24T22:27:17.396Z,6.77
2024-01-24T22:30:20.106Z,6.84
2024-01-24T22:33:22.988Z,6.87
2024-01-24T22:36:25.509Z,6.96
2024-01-24T22:39:27.713Z,6.98
2024-01-24T22:42:30.311Z,6.99
2024-01-24T22:45:32.468Z,7.02
2024-01-24T22:48:35.128Z,7.01
2024-01-24T22:51:37.801Z,7.06
2024-01-24T22:54:40.296Z,7.12
2024-01-24T22:57:48.074Z,7.19
2024-01-24T23:00:50.580Z,7.22
2024-01-24T23:03:53.378Z,7.21
2024-01-24T23:06:55.810Z,7.25
2024-01-24T23:09:58.286Z,7.29
2024-01-24T23:13:00.927Z,7.31
2024-01-24T23:16:03.097Z,7.32
2024-01-24T23:19:05.629Z,7.42
2024-01-24T23:22:08.039Z,7.45
2024-01-24T23:25:10.548Z,7.54
2024-01-24T23:28:12.699Z,7.61
2024-01-24T23:31:15.342Z,7.69
2024-01-24T23:34:17.628Z,7.73
2024-01-24T23:37:20.425Z,7.81
2024-01-24T23:40:22.889Z,7.82
2024-01-24T23:43:25.721Z,7.87
2024-01-24T23:46:29.151Z,7.95
2024-01-24T23:49:31.927Z,7.96
2024-01-24T23:52:34.280Z,8.03
2024-01-24T23:55:37.787Z,8.07
2024-01-24T23:58:39.878Z,8.14
